FASB

Springbok Airport

Springbok, South Africa
METAR FASB 160747Z 13005KT CAVOK 30/M01 Q1018
Observed Flight Rules
Dec-16 @ 07:47 UTC (3 hours ago) Visual Flight Rules
Wind Visibility Clouds
130° at 5 knots 10,000+ meters
  • Clear skies
Temperatures Readings
Current 30°C / 86°F
Dewpoint -1°C / 30°F
Humidity 13%
Altimeter 30.06" Hg
Pressure 1018 hPa
Elevation 813
METAR FASB 160747Z 13005KT CAVOK 30/M01 Q1018
Observed Flight Rules
Dec-16 @ 07:47 UTC
(3 hours ago)
VFR
Wind Visibility
130° at 5 knots 10,000+ meters
Clouds
  • Clear skies
Temperature Dewpoint
30°C / 86°F -1°C / 30°F
Humidity Altimeter Pressure
13% 30.06" Hg 1018 hPa